YMDN weather

Merredin Airport
Western Australia, Australia

Public forecast

Using degrees Celsius for public forecast. Weather courtesy of forecast.io.

Closest aviation weather report (METAR) to Merredin Airport

Closest report is RAAF Base Pearce, 118.4 nm (219.4 km) W. Retrieved 2019/10/16 11:30 UTC (0 seconds ago):

YPEA 161130Z AUTO 20009KT 9999 // NCD 14/07 Q1023

Closest aviation forecast (TAF) to Merredin Airport

Closest forecast is RAAF Base Pearce, 118.4 nm (219.4 km) W. Retrieved 2019/10/16 06:00 UTC (5 hours ago):

TAF YPEA 160527Z 1606/1624 22012KT CAVOK FM161500 15008KT CAVOK